createdAt,value
2019-03-12T00:01:27.272Z,6.43
2019-03-12T00:03:56.701Z,7.13
2019-03-12T00:06:26.219Z,7.80
2019-03-12T00:08:55.703Z,13.87
2019-03-12T00:11:25.118Z,15.63
2019-03-12T00:13:54.570Z,20.57
2019-03-12T00:16:24.102Z,22.13
2019-03-12T00:18:53.591Z,23.87
2019-03-12T00:21:23.226Z,26.50
2019-03-12T00:23:52.637Z,26.80
2019-03-12T00:26:22.101Z,20.00
2019-03-12T00:28:51.525Z,17.77
2019-03-12T00:31:20.963Z,14.87
2019-03-12T00:33:50.451Z,11.03
2019-03-12T00:36:19.930Z,10.83
2019-03-12T00:38:49.331Z,9.17
2019-03-12T00:41:20.038Z,8.40
2019-03-12T00:43:49.809Z,8.57
2019-03-12T00:46:19.273Z,7.93
2019-03-12T00:48:48.691Z,7.70
2019-03-12T00:51:18.115Z,7.97
2019-03-12T00:53:48.898Z,8.60
2019-03-12T00:56:18.329Z,8.20
2019-03-12T00:58:47.926Z,8.10
2019-03-12T01:01:17.383Z,7.90
2019-03-12T01:04:00.974Z,8.20
2019-03-12T01:06:30.385Z,7.20
2019-03-12T01:08:59.790Z,8.13
2019-03-12T01:11:29.199Z,7.73
2019-03-12T01:13:58.743Z,8.43
2019-03-12T01:16:28.843Z,8.47
2019-03-12T01:18:58.331Z,7.93
2019-03-12T01:21:27.750Z,8.10
2019-03-12T01:23:57.142Z,8.17
2019-03-12T01:26:39.457Z,8.60
2019-03-12T01:29:08.885Z,7.77
2019-03-12T01:31:38.316Z,8.10
2019-03-12T01:34:07.752Z,8.17
2019-03-12T01:36:37.260Z,8.20
2019-03-12T01:39:07.370Z,7.37
2019-03-12T01:41:36.777Z,8.30
2019-03-12T01:44:06.213Z,8.00
2019-03-12T01:46:35.645Z,7.80
2019-03-12T01:49:05.052Z,8.33
2019-03-12T01:51:34.493Z,8.40
2019-03-12T01:54:04.162Z,8.73
2019-03-12T01:56:33.587Z,7.93
2019-03-12T01:59:03.015Z,7.77
2019-03-12T02:01:32.453Z,8.10
2019-03-12T02:04:02.001Z,8.67
2019-03-12T02:06:31.476Z,7.93
2019-03-12T02:09:00.907Z,8.03
2019-03-12T02:11:30.373Z,8.07
2019-03-12T02:13:59.792Z,8.27
2019-03-12T02:16:29.456Z,8.37
2019-03-12T02:18:58.944Z,8.33
2019-03-12T02:21:28.438Z,8.77
2019-03-12T02:23:57.859Z,7.90
2019-03-12T02:26:27.279Z,8.00
2019-03-12T02:29:16.087Z,7.93
2019-03-12T02:31:58.816Z,8.67
2019-03-12T02:34:28.330Z,8.43
2019-03-12T02:37:10.373Z,9.10
2019-03-12T02:39:39.819Z,8.40
2019-03-12T02:42:12.505Z,8.90
2019-03-12T02:44:40.486Z,8.77
2019-03-12T02:47:09.965Z,8.07
2019-03-12T02:49:39.453Z,9.10
2019-03-12T02:52:08.881Z,8.80
2019-03-12T02:54:38.652Z,7.90
2019-03-12T02:57:08.087Z,7.90
2019-03-12T02:59:37.567Z,9.00
2019-03-12T03:02:06.987Z,9.20
2019-03-12T03:04:36.483Z,8.30
2019-03-12T03:07:07.476Z,8.77
2019-03-12T03:09:38.190Z,8.17
2019-03-12T03:12:07.655Z,8.80
2019-03-12T03:14:37.923Z,8.13
2019-03-12T03:17:20.143Z,8.33
2019-03-12T03:19:49.588Z,8.60
2019-03-12T03:22:19.051Z,8.30
2019-03-12T03:24:48.569Z,7.83
2019-03-12T03:27:18.030Z,8.13
2019-03-12T03:29:47.478Z,8.57
2019-03-12T03:32:16.923Z,8.47
2019-03-12T03:34:46.363Z,8.60
2019-03-12T03:37:28.543Z,8.73
2019-03-12T03:39:57.970Z,8.40
2019-03-12T03:42:27.401Z,8.87
2019-03-12T03:44:56.857Z,8.77
2019-03-12T03:47:26.296Z,8.57
2019-03-12T03:49:55.771Z,8.37
2019-03-12T03:52:25.234Z,9.13
2019-03-12T03:54:54.980Z,9.23
2019-03-12T03:57:24.400Z,8.50
2019-03-12T03:59:53.889Z,9.30
2019-03-12T04:02:23.304Z,8.90
2019-03-12T04:04:52.833Z,8.03
2019-03-12T04:07:22.212Z,9.07
2019-03-12T04:09:52.699Z,8.30
2019-03-12T04:12:35.454Z,7.30
2019-03-12T04:15:07.344Z,8.57
2019-03-12T04:17:36.823Z,8.07
2019-03-12T04:20:08.987Z,8.10
2019-03-12T04:22:38.391Z,8.60
2019-03-12T04:25:20.842Z,8.23
2019-03-12T04:27:50.321Z,8.33
2019-03-12T04:30:20.266Z,7.83
2019-03-12T04:32:49.759Z,7.17
2019-03-12T04:35:22.305Z,7.17
2019-03-12T04:37:51.818Z,7.17
2019-03-12T04:40:21.431Z,7.43
2019-03-12T04:42:50.831Z,8.77
2019-03-12T04:45:20.265Z,7.03
2019-03-12T04:48:02.506Z,7.27
2019-03-12T04:50:31.945Z,6.47
2019-03-12T04:53:01.456Z,6.30
2019-03-12T04:55:32.081Z,6.50
2019-03-12T04:58:01.515Z,7.23
2019-03-12T05:00:50.308Z,6.80
2019-03-12T05:03:19.783Z,6.27
2019-03-12T05:05:49.188Z,7.07
2019-03-12T05:08:18.601Z,7.63
2019-03-12T05:10:48.087Z,7.50
2019-03-12T05:13:17.566Z,7.73
2019-03-12T05:15:46.970Z,8.03
2019-03-12T05:18:16.927Z,7.40
2019-03-12T05:20:46.375Z,7.93
2019-03-12T05:23:15.801Z,8.23
2019-03-12T05:25:45.222Z,7.00
2019-03-12T05:28:14.679Z,6.53
2019-03-12T05:30:44.215Z,6.50
2019-03-12T05:33:13.606Z,7.37
2019-03-12T05:35:43.053Z,7.17
2019-03-12T05:38:12.437Z,7.17
2019-03-12T05:40:41.919Z,6.70
2019-03-12T05:43:11.418Z,6.97
2019-03-12T05:45:41.126Z,6.13
2019-03-12T05:48:10.571Z,5.93
2019-03-12T05:50:39.982Z,6.40
2019-03-12T05:53:11.792Z,6.47
2019-03-12T05:56:02.195Z,6.43
2019-03-12T05:58:50.997Z,6.33
2019-03-12T06:01:20.426Z,5.93
2019-03-12T06:03:49.874Z,6.10
2019-03-12T06:06:19.349Z,6.13
2019-03-12T06:08:48.771Z,5.70
2019-03-12T06:11:18.263Z,5.90
2019-03-12T06:13:47.781Z,5.90
2019-03-12T06:16:17.220Z,6.03
2019-03-12T06:18:46.636Z,5.97
2019-03-12T06:21:16.162Z,6.03
2019-03-12T06:23:45.709Z,5.90
2019-03-12T06:26:15.089Z,5.27
2019-03-12T06:28:45.057Z,5.20
2019-03-12T06:31:16.123Z,7.47
2019-03-12T06:36:34.629Z,6.13
2019-03-12T06:39:07.675Z,5.47
2019-03-12T06:41:38.672Z,4.93
2019-03-12T06:44:09.709Z,5.13
2019-03-12T06:46:40.767Z,5.40
2019-03-12T06:49:11.895Z,4.57
2019-03-12T06:51:42.977Z,5.97
2019-03-12T06:54:13.983Z,5.40
2019-03-12T06:56:45.193Z,5.03
2019-03-12T06:59:16.258Z,5.10
2019-03-12T07:01:47.386Z,5.00
2019-03-12T07:04:18.399Z,5.23
2019-03-12T07:06:49.394Z,5.13
2019-03-12T07:09:21.439Z,5.10
2019-03-12T07:12:08.823Z,5.07
2019-03-12T07:14:40.045Z,5.10
2019-03-12T07:17:30.412Z,5.10
2019-03-12T07:20:01.497Z,5.40
2019-03-12T07:22:32.561Z,4.67
2019-03-12T07:25:03.640Z,5.00
2019-03-12T07:27:34.689Z,5.43
2019-03-12T07:30:08.888Z,5.90
2019-03-12T07:32:39.939Z,5.00
2019-03-12T07:35:10.971Z,5.40
2019-03-12T07:37:42.116Z,5.73
2019-03-12T07:40:13.211Z,4.53
2019-03-12T07:42:44.294Z,5.10
2019-03-12T07:45:15.344Z,4.27
2019-03-12T07:47:46.587Z,4.93
2019-03-12T07:50:17.663Z,4.83
2019-03-12T07:52:48.693Z,5.20
2019-03-12T07:55:39.251Z,4.50
2019-03-12T07:58:10.342Z,4.80
2019-03-12T08:00:41.362Z,5.03
2019-03-12T08:03:12.845Z,4.37
2019-03-12T08:05:43.927Z,5.00
2019-03-12T08:08:17.871Z,4.80
2019-03-12T08:10:48.903Z,5.37
2019-03-12T08:13:20.365Z,5.47
2019-03-12T08:15:51.718Z,4.60
2019-03-12T08:18:22.825Z,5.13
2019-03-12T08:20:53.989Z,5.03
2019-03-12T08:23:25.135Z,4.27
2019-03-12T08:25:56.316Z,4.17
2019-03-12T08:28:27.351Z,3.77
2019-03-12T08:30:58.430Z,4.93
2019-03-12T08:33:35.519Z,3.50
2019-03-12T08:36:06.644Z,3.73
2019-03-12T08:38:37.986Z,3.33
2019-03-12T08:41:09.031Z,4.13
2019-03-12T08:43:40.089Z,4.23
2019-03-12T08:46:11.082Z,2.90
2019-03-12T08:48:42.105Z,3.50
2019-03-12T08:51:13.165Z,3.30
2019-03-12T08:53:56.825Z,4.07
2019-03-12T08:56:27.930Z,4.50
2019-03-12T08:58:59.114Z,3.20
2019-03-12T09:01:30.426Z,3.17
2019-03-12T09:04:01.428Z,3.87
2019-03-12T09:06:34.055Z,3.30
2019-03-12T09:09:05.517Z,3.50
2019-03-12T09:11:36.543Z,3.47
2019-03-12T09:14:07.741Z,3.37
2019-03-12T09:16:38.784Z,2.90
2019-03-12T09:19:10.296Z,3.40
2019-03-12T09:21:41.415Z,3.50
2019-03-12T09:24:12.572Z,3.50
2019-03-12T09:26:43.622Z,3.30
2019-03-12T09:29:16.273Z,3.57
2019-03-12T09:31:47.384Z,3.57
2019-03-12T09:34:18.547Z,3.40
2019-03-12T09:36:49.655Z,3.43
2019-03-12T09:39:20.733Z,2.90
2019-03-12T09:41:52.327Z,3.33
2019-03-12T09:44:23.380Z,3.27
2019-03-12T09:46:54.520Z,3.60
2019-03-12T09:49:28.665Z,2.73
2019-03-12T09:52:12.344Z,3.03
2019-03-12T09:54:43.380Z,3.20
2019-03-12T09:57:14.645Z,3.53
2019-03-12T10:00:16.325Z,3.60
2019-03-12T10:02:39.491Z,3.40
2019-03-12T10:05:10.574Z,3.30
2019-03-12T10:07:41.647Z,3.30
2019-03-12T10:10:12.683Z,3.37
2019-03-12T10:12:45.342Z,3.50
2019-03-12T10:15:16.549Z,2.60
2019-03-12T10:17:47.638Z,2.60
2019-03-12T10:20:18.683Z,3.40
2019-03-12T10:22:49.734Z,2.90
2019-03-12T10:25:20.791Z,2.83
2019-03-12T10:27:51.975Z,2.77
2019-03-12T10:30:23.141Z,2.63
2019-03-12T10:32:54.295Z,2.53
2019-03-12T10:35:25.474Z,3.07
2019-03-12T10:38:05.728Z,3.10
2019-03-12T10:40:37.736Z,2.60
2019-03-12T10:43:08.971Z,2.80
2019-03-12T10:45:40.154Z,2.53
2019-03-12T10:48:13.830Z,3.03
2019-03-12T10:50:43.306Z,3.17
2019-03-12T10:53:12.992Z,2.73
2019-03-12T10:55:42.444Z,2.70
2019-03-12T10:58:12.152Z,3.30
2019-03-12T11:00:42.995Z,3.67
2019-03-12T11:03:12.713Z,2.70
2019-03-12T11:05:46.142Z,3.03
2019-03-12T11:08:13.215Z,3.43
2019-03-12T11:10:42.883Z,2.93
2019-03-12T11:13:14.696Z,2.90
2019-03-12T11:15:43.660Z,3.20
2019-03-12T11:18:13.080Z,3.17
2019-03-12T11:20:42.537Z,2.80
2019-03-12T11:23:11.935Z,3.20
2019-03-12T11:25:41.527Z,3.00
2019-03-12T11:28:11.081Z,3.43
2019-03-12T11:30:40.683Z,3.50
2019-03-12T11:33:10.118Z,3.10
2019-03-12T11:35:39.915Z,3.00
2019-03-12T11:38:09.402Z,3.50
2019-03-12T11:40:38.915Z,3.80
2019-03-12T11:43:08.339Z,3.33
2019-03-12T11:45:38.429Z,3.00
2019-03-12T11:48:08.459Z,3.03
2019-03-12T11:50:37.955Z,3.53
2019-03-12T11:53:07.492Z,2.87
2019-03-12T11:55:37.276Z,2.80
2019-03-12T11:58:06.754Z,3.40
2019-03-12T12:00:37.862Z,2.83
2019-03-12T12:03:08.554Z,3.00
2019-03-12T12:05:38.128Z,3.27
2019-03-12T12:08:07.686Z,2.93
2019-03-12T12:10:37.623Z,2.80
2019-03-12T12:13:07.252Z,3.30
2019-03-12T12:15:39.241Z,3.50
2019-03-12T12:18:15.992Z,3.23
2019-03-12T12:20:49.147Z,2.87
2019-03-12T12:23:18.575Z,3.27
2019-03-12T12:25:49.929Z,2.80
2019-03-12T12:28:38.729Z,2.80
2019-03-12T12:31:08.251Z,2.57
2019-03-12T12:33:37.857Z,3.10
2019-03-12T12:36:07.459Z,2.40
2019-03-12T12:38:37.133Z,2.80
2019-03-12T12:41:06.925Z,2.43
2019-03-12T12:43:36.393Z,2.40
2019-03-12T12:46:05.911Z,2.77
2019-03-12T12:48:35.409Z,2.30
2019-03-12T12:51:04.953Z,2.70
2019-03-12T12:53:34.415Z,2.50
2019-03-12T12:56:04.337Z,2.43
2019-03-12T12:58:33.774Z,2.17
2019-03-12T13:01:03.260Z,2.70
2019-03-12T13:03:34.044Z,2.50
2019-03-12T13:06:03.519Z,2.70
2019-03-12T13:08:33.005Z,2.60
2019-03-12T13:11:02.446Z,2.70
2019-03-12T13:13:32.168Z,3.00
2019-03-12T13:16:01.751Z,2.20
2019-03-12T13:18:32.780Z,2.50
2019-03-12T13:21:02.190Z,2.87
2019-03-12T13:23:31.631Z,2.60
2019-03-12T13:26:01.066Z,2.80
2019-03-12T13:28:30.613Z,2.47
2019-03-12T13:31:00.140Z,3.00
2019-03-12T13:33:31.222Z,2.47
2019-03-12T13:36:00.732Z,2.67
2019-03-12T13:38:44.837Z,2.83
2019-03-12T13:41:03.055Z,2.63
2019-03-12T13:43:32.892Z,2.67
2019-03-12T13:46:02.534Z,2.40
2019-03-12T13:48:31.991Z,2.60
2019-03-12T13:51:01.479Z,2.70
2019-03-12T13:53:31.199Z,2.70
2019-03-12T13:56:00.686Z,2.60
2019-03-12T13:58:32.352Z,2.43
2019-03-12T14:01:01.843Z,2.90
2019-03-12T14:03:31.355Z,2.90
2019-03-12T14:06:00.857Z,2.63
2019-03-12T14:08:30.310Z,2.70
2019-03-12T14:10:59.796Z,2.70
2019-03-12T14:13:29.468Z,2.93
2019-03-12T14:15:58.892Z,2.43
2019-03-12T14:18:28.320Z,2.87
2019-03-12T14:21:03.988Z,2.70
2019-03-12T14:23:36.650Z,2.60
2019-03-12T14:26:06.101Z,2.60
2019-03-12T14:28:35.526Z,2.83
2019-03-12T14:31:05.023Z,3.03
2019-03-12T14:33:34.452Z,2.63
2019-03-12T14:36:03.949Z,2.33
2019-03-12T14:38:33.377Z,2.13
2019-03-12T14:41:04.479Z,2.77
2019-03-12T14:43:35.035Z,2.30
2019-03-12T14:46:04.811Z,2.10
2019-03-12T14:48:36.492Z,2.17
2019-03-12T14:51:09.182Z,2.27
2019-03-12T14:53:40.170Z,2.80
2019-03-12T14:56:11.321Z,2.53
2019-03-12T14:58:40.734Z,2.63
2019-03-12T15:01:10.229Z,2.40
2019-03-12T15:03:44.875Z,2.80
2019-03-12T15:06:14.654Z,2.97
2019-03-12T15:08:44.070Z,2.50
2019-03-12T15:11:13.691Z,2.30
2019-03-12T15:13:43.178Z,2.40
2019-03-12T15:16:12.551Z,2.40
2019-03-12T15:18:42.154Z,2.23
2019-03-12T15:21:11.863Z,2.53
2019-03-12T15:23:41.398Z,2.73
2019-03-12T15:26:10.913Z,2.47
2019-03-12T15:28:40.410Z,2.23
2019-03-12T15:31:09.924Z,2.50
2019-03-12T15:33:39.495Z,2.20
2019-03-12T15:36:09.032Z,2.97
2019-03-12T15:38:38.402Z,2.43
2019-03-12T15:41:07.906Z,2.40
2019-03-12T15:43:37.363Z,2.27
2019-03-12T15:46:07.048Z,2.40
2019-03-12T15:48:36.527Z,2.10
2019-03-12T15:51:25.548Z,2.00
2019-03-12T15:53:54.967Z,2.07
2019-03-12T15:56:24.475Z,2.13
2019-03-12T15:58:55.488Z,2.23
2019-03-12T16:01:25.077Z,2.37
2019-03-12T16:04:07.797Z,2.30
2019-03-12T16:06:38.551Z,2.80
2019-03-12T16:09:07.952Z,2.40
2019-03-12T16:11:37.414Z,2.33
2019-03-12T16:14:06.854Z,2.40
2019-03-12T16:16:36.297Z,2.00
2019-03-12T16:19:05.730Z,2.27
2019-03-12T16:21:35.150Z,2.03
2019-03-12T16:24:04.552Z,1.87
2019-03-12T16:26:34.125Z,2.50
2019-03-12T16:29:22.927Z,2.20
2019-03-12T16:31:52.382Z,2.23
2019-03-12T16:34:21.817Z,2.30
2019-03-12T16:36:51.231Z,2.07
2019-03-12T16:39:20.887Z,2.10
2019-03-12T16:41:50.518Z,2.03
2019-03-12T16:44:20.075Z,1.97
2019-03-12T16:46:49.476Z,1.97
2019-03-12T16:49:18.981Z,2.07
2019-03-12T16:51:48.394Z,1.63
2019-03-12T16:54:17.834Z,1.83
2019-03-12T16:56:47.390Z,1.90
2019-03-12T16:59:16.896Z,2.10
2019-03-12T17:01:46.395Z,1.70
2019-03-12T17:04:15.881Z,2.37
2019-03-12T17:06:46.980Z,2.10
2019-03-12T17:09:16.407Z,1.87
2019-03-12T17:11:46.278Z,1.97
2019-03-12T17:14:15.731Z,2.03
2019-03-12T17:16:45.217Z,1.60
2019-03-12T17:19:14.614Z,1.97
2019-03-12T17:21:44.049Z,1.93
2019-03-12T17:24:13.508Z,1.90
2019-03-12T17:26:42.905Z,2.30
2019-03-12T17:29:14.455Z,2.33
2019-03-12T17:31:43.854Z,2.00
2019-03-12T17:34:13.266Z,1.93
2019-03-12T17:36:42.660Z,2.13
2019-03-12T17:39:12.059Z,2.13
2019-03-12T17:41:41.566Z,2.20
2019-03-12T17:44:11.086Z,1.67
2019-03-12T17:46:40.668Z,2.23
2019-03-12T17:49:12.581Z,2.30
2019-03-12T17:51:41.293Z,2.23
2019-03-12T17:54:13.389Z,2.37
2019-03-12T17:56:42.806Z,2.23
2019-03-12T17:59:12.226Z,2.07
2019-03-12T18:01:41.720Z,2.30
2019-03-12T18:04:11.220Z,2.03
2019-03-12T18:06:40.749Z,2.23
2019-03-12T18:09:11.362Z,2.10
2019-03-12T18:11:40.777Z,1.90
2019-03-12T18:14:10.186Z,2.10
2019-03-12T18:16:41.318Z,2.07
2019-03-12T18:19:10.694Z,2.23
2019-03-12T18:21:40.112Z,2.33
2019-03-12T18:24:09.600Z,2.30
2019-03-12T18:26:39.116Z,2.33
2019-03-12T18:29:08.539Z,2.40
2019-03-12T18:31:37.954Z,2.30
2019-03-12T18:34:07.354Z,2.10
2019-03-12T18:36:38.346Z,2.10
2019-03-12T18:39:20.409Z,2.27
2019-03-12T18:41:49.872Z,1.80
2019-03-12T18:44:19.272Z,2.27
2019-03-12T18:46:48.776Z,2.13
2019-03-12T18:49:18.227Z,2.37
2019-03-12T18:51:47.622Z,2.30
2019-03-12T18:54:17.217Z,2.30
2019-03-12T18:56:46.607Z,2.20
2019-03-12T18:59:16.032Z,2.50
2019-03-12T19:01:45.493Z,2.33
2019-03-12T19:04:15.040Z,2.47
2019-03-12T19:06:44.513Z,2.30
2019-03-12T19:09:28.060Z,2.17
2019-03-12T19:11:57.542Z,2.20
2019-03-12T19:14:26.999Z,2.33
2019-03-12T19:16:56.455Z,2.27
2019-03-12T19:19:25.911Z,2.07
2019-03-12T19:21:55.380Z,2.43
2019-03-12T19:24:24.801Z,2.23
2019-03-12T19:26:54.304Z,2.63
2019-03-12T19:29:23.783Z,2.20
2019-03-12T19:31:54.817Z,2.60
2019-03-12T19:34:25.932Z,2.70
2019-03-12T19:36:55.386Z,2.70
2019-03-12T19:39:24.916Z,2.60
2019-03-12T19:41:54.340Z,2.67
2019-03-12T19:44:23.767Z,2.40
2019-03-12T19:46:53.196Z,2.30
2019-03-12T19:49:22.666Z,2.30
2019-03-12T19:51:52.103Z,2.73
2019-03-12T19:54:21.523Z,2.67
2019-03-12T19:57:10.329Z,2.50
2019-03-12T19:59:39.777Z,2.77
2019-03-12T20:02:15.899Z,3.07
2019-03-12T20:04:47.314Z,2.27
2019-03-12T20:07:11.574Z,3.07
2019-03-12T20:09:43.634Z,2.70
2019-03-12T20:12:28.149Z,2.87
2019-03-12T20:15:00.762Z,3.20
2019-03-12T20:17:35.873Z,2.53
2019-03-12T20:20:08.483Z,2.83
2019-03-12T20:22:41.050Z,2.53
2019-03-12T20:25:13.728Z,2.67
2019-03-12T20:27:46.845Z,2.40
2019-03-12T20:30:37.225Z,2.47
2019-03-12T20:33:09.788Z,2.50
2019-03-12T20:36:00.290Z,2.80
2019-03-12T20:38:44.027Z,2.80
2019-03-12T20:41:34.390Z,2.90
2019-03-12T20:44:07.073Z,2.90
2019-03-12T20:46:57.394Z,2.47
2019-03-12T20:49:43.033Z,2.37
2019-03-12T20:52:26.961Z,2.10
2019-03-12T20:54:59.538Z,2.60
2019-03-12T20:57:32.077Z,2.97
2019-03-12T21:00:04.657Z,2.13
2019-03-12T21:02:37.277Z,2.60
2019-03-12T21:05:09.972Z,2.60
2019-03-12T21:08:00.343Z,2.40
2019-03-12T21:10:44.871Z,2.50
2019-03-12T21:13:17.446Z,2.10
2019-03-12T21:16:01.826Z,1.00
2019-03-12T21:18:34.397Z,0.63
2019-03-12T21:21:06.961Z,1.00
2019-03-12T21:23:39.688Z,1.07
2019-03-12T21:26:12.332Z,1.30
2019-03-12T21:28:45.026Z,0.80
2019-03-12T21:31:15.124Z,1.20
2019-03-12T21:34:04.288Z,1.40
2019-03-12T21:36:33.688Z,1.50
2019-03-12T21:39:04.897Z,2.07
2019-03-12T21:41:34.383Z,1.67
2019-03-12T21:44:03.909Z,0.80
2019-03-12T21:46:33.378Z,1.90
2019-03-12T21:49:02.766Z,1.93
2019-03-12T21:51:32.183Z,1.20
2019-03-12T21:54:16.340Z,2.20
2019-03-12T21:56:45.745Z,2.67
2019-03-12T21:59:15.156Z,2.20
2019-03-12T22:01:44.628Z,2.97
2019-03-12T22:04:15.613Z,2.70
2019-03-12T22:06:45.075Z,2.33
2019-03-12T22:09:14.530Z,3.37
2019-03-12T22:11:44.295Z,4.00
2019-03-12T22:14:13.842Z,3.97
2019-03-12T22:16:44.130Z,3.63
2019-03-12T22:19:13.593Z,4.10
2019-03-12T22:22:04.041Z,4.57
2019-03-12T22:24:33.430Z,4.70
2019-03-12T22:27:22.241Z,4.63
2019-03-12T22:29:51.676Z,5.33
2019-03-12T22:32:21.083Z,5.20
2019-03-12T22:34:50.528Z,5.33
2019-03-12T22:37:19.955Z,5.90
2019-03-12T22:39:49.430Z,6.77
2019-03-12T22:42:38.179Z,6.60
2019-03-12T22:45:09.625Z,7.37
2019-03-12T22:47:39.095Z,7.43
2019-03-12T22:50:14.167Z,6.77
2019-03-12T22:52:43.572Z,7.40
2019-03-12T22:55:25.800Z,6.90
2019-03-12T22:57:55.199Z,8.10
2019-03-12T23:00:26.224Z,8.30
2019-03-12T23:02:55.685Z,9.17
2019-03-12T23:05:27.734Z,7.33
2019-03-12T23:08:16.571Z,8.73
2019-03-12T23:10:46.293Z,8.80
2019-03-12T23:13:35.334Z,9.30
2019-03-12T23:16:17.440Z,9.57
2019-03-12T23:18:46.844Z,10.30
2019-03-12T23:21:29.514Z,10.53
2019-03-12T23:23:59.067Z,10.03
2019-03-12T23:26:28.525Z,9.37
2019-03-12T23:28:57.932Z,9.07
2019-03-12T23:31:40.377Z,9.43
2019-03-12T23:34:09.965Z,8.97
2019-03-12T23:36:39.443Z,8.83
2019-03-12T23:39:28.233Z,9.07
2019-03-12T23:41:57.619Z,9.27
2019-03-12T23:44:46.420Z,9.47
2019-03-12T23:47:15.821Z,9.20
2019-03-12T23:49:45.286Z,10.03
2019-03-12T23:52:14.708Z,10.13
2019-03-12T23:54:44.124Z,9.40
2019-03-12T23:57:13.621Z,9.03
2019-03-12T23:59:43.089Z,9.57
